createdAt,value
2022-08-19T00:00:31.452Z,59.71
2022-08-19T00:01:30.414Z,60.25
2022-08-19T00:02:17.543Z,60.29
2022-08-19T00:03:05.011Z,60.21
2022-08-19T00:03:52.146Z,60.19
2022-08-19T00:04:39.205Z,60.39
2022-08-19T00:05:26.029Z,60.42
2022-08-19T00:06:13.364Z,60.46
2022-08-19T00:07:05.169Z,60.40
2022-08-19T00:07:52.097Z,60.02
2022-08-19T00:08:38.863Z,58.47
2022-08-19T00:09:30.247Z,58.17
2022-08-19T00:10:18.783Z,58.94
2022-08-19T00:11:06.029Z,59.71
2022-08-19T00:11:54.559Z,59.69
2022-08-19T00:12:46.777Z,59.70
2022-08-19T00:13:34.646Z,59.82
2022-08-19T00:14:21.887Z,59.65
2022-08-19T00:15:12.797Z,59.96
2022-08-19T00:16:00.827Z,60.12
2022-08-19T00:16:48.798Z,60.27
2022-08-19T00:17:35.577Z,60.16
2022-08-19T00:18:28.836Z,60.12
2022-08-19T00:19:16.907Z,59.74
2022-08-19T00:20:04.706Z,59.38
2022-08-19T00:20:51.466Z,59.68
2022-08-19T00:21:40.595Z,59.88
2022-08-19T00:22:29.445Z,60.42
2022-08-19T00:23:16.195Z,60.88
2022-08-19T00:24:03.198Z,61.15
2022-08-19T00:24:51.021Z,60.92
2022-08-19T00:25:37.882Z,60.83
2022-08-19T00:26:25.810Z,60.79
2022-08-19T00:27:26.287Z,60.78
2022-08-19T00:28:13.540Z,60.70
2022-08-19T00:29:01.813Z,60.56
2022-08-19T00:29:52.234Z,60.64
2022-08-19T00:30:39.680Z,60.37
2022-08-19T00:31:26.581Z,60.74
2022-08-19T00:32:13.373Z,60.88
2022-08-19T00:33:01.246Z,60.88
2022-08-19T00:33:48.999Z,61.28
2022-08-19T00:34:36.520Z,61.48
2022-08-19T00:35:23.360Z,61.61
2022-08-19T00:36:11.038Z,61.77
2022-08-19T00:36:58.867Z,62.11
2022-08-19T00:37:45.900Z,62.40
2022-08-19T00:38:37.776Z,62.61
2022-08-19T00:39:25.233Z,62.78
2022-08-19T00:40:13.521Z,62.80
2022-08-19T00:41:00.625Z,62.77
2022-08-19T00:41:49.979Z,62.92
2022-08-19T00:42:36.867Z,63.15
2022-08-19T00:43:26.851Z,63.24
2022-08-19T00:44:17.048Z,63.28
2022-08-19T00:45:10.877Z,63.51
2022-08-19T00:45:57.903Z,63.22
2022-08-19T00:46:55.340Z,63.23
2022-08-19T00:47:46.178Z,63.42
2022-08-19T00:48:34.636Z,63.38
2022-08-19T00:49:55.284Z,63.24
2022-08-19T00:50:51.508Z,63.18
2022-08-19T00:51:39.199Z,63.04
2022-08-19T00:52:32.980Z,62.96
2022-08-19T00:53:22.145Z,63.08
2022-08-19T00:54:10.258Z,63.09
2022-08-19T00:54:58.966Z,63.26
2022-08-19T00:55:51.565Z,63.57
2022-08-19T00:56:40.050Z,63.88
2022-08-19T00:57:35.277Z,64.08
2022-08-19T00:58:24.464Z,64.02
2022-08-19T00:59:11.703Z,64.09
2022-08-19T01:00:02.279Z,64.34
2022-08-19T01:00:49.867Z,64.28
2022-08-19T01:01:42.174Z,64.27
2022-08-19T01:02:29.179Z,64.19
2022-08-19T01:03:19.600Z,64.13
2022-08-19T01:04:06.421Z,64.14
2022-08-19T01:04:53.204Z,64.08
2022-08-19T01:05:42.725Z,64.19
2022-08-19T01:06:29.558Z,64.31
2022-08-19T01:07:19.593Z,64.60
2022-08-19T01:08:07.560Z,64.65
2022-08-19T01:08:56.245Z,64.60
2022-08-19T01:09:43.023Z,64.64
2022-08-19T01:10:38.994Z,64.74
2022-08-19T01:11:26.477Z,65.01
2022-08-19T01:12:13.205Z,65.02
2022-08-19T01:13:01.015Z,65.07
2022-08-19T01:13:49.425Z,65.05
2022-08-19T01:14:39.027Z,64.98
2022-08-19T01:15:30.514Z,64.95
2022-08-19T01:16:18.959Z,64.87
2022-08-19T01:17:06.325Z,64.89
2022-08-19T01:17:53.322Z,64.87
2022-08-19T01:18:42.967Z,64.85
2022-08-19T01:19:44.370Z,64.78
2022-08-19T01:20:31.507Z,64.90
2022-08-19T01:21:43.714Z,64.93
2022-08-19T01:22:41.156Z,64.95
2022-08-19T01:23:43.717Z,64.73
2022-08-19T01:24:31.867Z,64.91
2022-08-19T01:25:21.258Z,64.83
2022-08-19T01:26:08.035Z,64.87
2022-08-19T01:26:55.925Z,65.05
2022-08-19T01:27:45.919Z,64.92
2022-08-19T01:28:33.842Z,65.04
2022-08-19T01:29:21.357Z,65.35
2022-08-19T01:30:09.329Z,65.79
2022-08-19T01:30:56.286Z,65.96
2022-08-19T01:31:43.469Z,66.26
2022-08-19T01:32:34.022Z,66.30
2022-08-19T01:33:21.929Z,66.07
2022-08-19T01:34:08.966Z,66.03
2022-08-19T01:34:55.765Z,65.94
2022-08-19T01:35:43.445Z,65.87
2022-08-19T01:36:37.321Z,65.71
2022-08-19T01:37:27.238Z,65.60
2022-08-19T01:38:25.000Z,65.66
2022-08-19T01:39:17.402Z,65.60
2022-08-19T01:40:09.229Z,65.65
2022-08-19T01:40:56.251Z,65.75
2022-08-19T01:41:42.994Z,66.07
2022-08-19T01:42:30.898Z,65.84
2022-08-19T01:43:18.216Z,65.81
2022-08-19T01:44:17.591Z,65.82
2022-08-19T01:45:08.658Z,65.96
2022-08-19T01:45:55.419Z,66.02
2022-08-19T01:46:43.183Z,66.28
2022-08-19T01:47:30.250Z,66.49
2022-08-19T01:48:17.040Z,66.40
2022-08-19T01:49:05.399Z,66.34
2022-08-19T01:49:52.202Z,66.33
2022-08-19T01:50:39.278Z,66.48
2022-08-19T01:51:26.119Z,66.34
2022-08-19T01:52:13.023Z,66.32
2022-08-19T01:53:06.235Z,66.38
2022-08-19T01:53:54.202Z,66.27
2022-08-19T01:54:40.999Z,66.18
2022-08-19T01:55:27.787Z,66.36
2022-08-19T01:56:14.598Z,66.53
2022-08-19T01:57:06.958Z,66.47
2022-08-19T01:57:57.285Z,66.56
2022-08-19T01:58:51.933Z,66.66
2022-08-19T01:59:38.990Z,66.85
2022-08-19T02:00:27.702Z,66.82
2022-08-19T02:01:15.063Z,66.55
2022-08-19T02:02:02.278Z,66.49
2022-08-19T02:02:49.293Z,66.58
2022-08-19T02:03:36.159Z,66.59
2022-08-19T02:04:24.461Z,66.90
2022-08-19T02:05:12.770Z,67.05
2022-08-19T02:06:01.402Z,67.06
2022-08-19T02:06:49.233Z,67.17
2022-08-19T02:07:36.944Z,67.23
2022-08-19T02:08:28.485Z,67.30
2022-08-19T02:09:15.626Z,67.47
2022-08-19T02:10:08.959Z,67.36
2022-08-19T02:11:00.198Z,67.32
2022-08-19T02:11:46.944Z,67.20
2022-08-19T02:12:33.728Z,67.07
2022-08-19T02:13:26.457Z,67.14
2022-08-19T02:14:14.283Z,67.22
2022-08-19T02:15:02.902Z,67.19
2022-08-19T02:15:49.638Z,67.30
2022-08-19T02:16:37.954Z,67.34
2022-08-19T02:17:24.744Z,67.31
2022-08-19T02:18:11.814Z,67.30
2022-08-19T02:19:01.686Z,67.28
2022-08-19T02:19:48.981Z,67.26
2022-08-19T02:20:36.860Z,67.43
2022-08-19T02:21:25.225Z,67.36
2022-08-19T02:22:12.054Z,67.40
2022-08-19T02:22:58.864Z,67.47
2022-08-19T02:23:45.949Z,67.49
2022-08-19T02:24:32.947Z,67.49
2022-08-19T02:25:19.717Z,67.54
2022-08-19T02:26:07.488Z,67.37
2022-08-19T02:26:54.782Z,67.53
2022-08-19T02:27:42.430Z,67.57
2022-08-19T02:28:29.235Z,67.68
2022-08-19T02:29:16.005Z,67.63
2022-08-19T02:30:03.257Z,67.57
2022-08-19T02:30:50.041Z,67.61
2022-08-19T02:31:37.024Z,67.46
2022-08-19T02:32:23.883Z,67.47
2022-08-19T02:33:10.810Z,67.82
2022-08-19T02:33:57.845Z,68.08
2022-08-19T02:34:44.603Z,68.17
2022-08-19T02:35:31.928Z,68.30
2022-08-19T02:36:21.231Z,68.53
2022-08-19T02:37:28.188Z,68.27
2022-08-19T02:38:27.414Z,67.98
2022-08-19T02:39:14.660Z,67.86
2022-08-19T02:40:02.102Z,68.12
2022-08-19T02:40:52.932Z,68.21
2022-08-19T02:41:39.685Z,67.96
2022-08-19T02:42:26.604Z,68.00
2022-08-19T02:43:13.346Z,68.01
2022-08-19T02:44:26.477Z,67.98
2022-08-19T02:45:09.312Z,67.86
2022-08-19T02:45:56.183Z,67.75
2022-08-19T02:46:44.479Z,67.85
2022-08-19T02:47:31.228Z,67.81
2022-08-19T02:48:21.651Z,68.11
2022-08-19T02:49:09.256Z,68.45
2022-08-19T02:49:56.005Z,68.60
2022-08-19T02:50:51.777Z,68.43
2022-08-19T02:51:44.325Z,68.42
2022-08-19T02:52:31.980Z,68.73
2022-08-19T02:53:18.724Z,68.68
2022-08-19T02:54:07.713Z,68.91
2022-08-19T02:54:54.452Z,69.02
2022-08-19T02:55:46.847Z,69.24
2022-08-19T02:56:36.399Z,69.34
2022-08-19T02:57:23.332Z,69.20
2022-08-19T02:58:10.107Z,69.31
2022-08-19T02:58:56.947Z,69.46
2022-08-19T02:59:43.739Z,69.53
2022-08-19T03:00:30.497Z,69.73
2022-08-19T03:01:30.979Z,69.38
2022-08-19T03:02:17.731Z,69.26
2022-08-19T03:03:04.522Z,68.94
2022-08-19T03:03:52.131Z,68.78
2022-08-19T03:04:39.396Z,68.98
2022-08-19T03:05:46.837Z,68.90
2022-08-19T03:06:33.418Z,68.95
2022-08-19T03:07:20.220Z,69.09
2022-08-19T03:08:07.506Z,69.25
2022-08-19T03:08:54.451Z,69.24
2022-08-19T03:09:41.207Z,69.31
2022-08-19T03:10:28.116Z,69.28
2022-08-19T03:11:17.491Z,69.24
2022-08-19T03:12:05.804Z,68.99
2022-08-19T03:12:52.682Z,69.34
2022-08-19T03:13:39.454Z,69.48
2022-08-19T03:14:26.185Z,69.58
2022-08-19T03:15:12.988Z,69.92
2022-08-19T03:15:59.791Z,69.92
2022-08-19T03:16:50.427Z,70.02
2022-08-19T03:17:37.600Z,70.06
2022-08-19T03:18:24.669Z,69.86
2022-08-19T03:19:11.419Z,69.64
2022-08-19T03:19:58.352Z,69.62
2022-08-19T03:20:48.296Z,69.81
2022-08-19T03:21:36.120Z,69.69
2022-08-19T03:22:22.966Z,69.71
2022-08-19T03:23:09.942Z,69.83
2022-08-19T03:24:01.476Z,70.02
2022-08-19T03:24:48.694Z,69.92
2022-08-19T03:25:42.247Z,70.23
2022-08-19T03:26:29.551Z,70.43
2022-08-19T03:27:16.346Z,70.30
2022-08-19T03:28:03.210Z,70.26
2022-08-19T03:28:58.210Z,70.10
2022-08-19T03:29:46.005Z,70.09
2022-08-19T03:30:33.276Z,70.21
2022-08-19T03:31:44.856Z,70.06
2022-08-19T03:32:32.931Z,70.10
2022-08-19T03:33:26.458Z,69.86
2022-08-19T03:34:20.118Z,69.90
2022-08-19T03:35:07.156Z,70.03
2022-08-19T03:36:16.573Z,70.19
2022-08-19T03:37:09.254Z,70.13
2022-08-19T03:37:57.533Z,70.03
2022-08-19T03:38:47.478Z,70.21
2022-08-19T03:39:34.996Z,70.27
2022-08-19T03:40:21.807Z,70.25
2022-08-19T03:41:11.635Z,70.27
2022-08-19T03:42:29.298Z,70.30
2022-08-19T03:43:07.155Z,70.32
2022-08-19T03:43:55.125Z,70.54
2022-08-19T03:44:43.408Z,70.61
2022-08-19T03:45:30.406Z,70.64
2022-08-19T03:46:21.445Z,70.87
2022-08-19T03:47:08.191Z,70.98
2022-08-19T03:47:55.039Z,71.36
2022-08-19T03:48:43.306Z,71.34
2022-08-19T03:49:32.137Z,71.38
2022-08-19T03:50:20.857Z,71.52
2022-08-19T03:51:08.623Z,71.27
2022-08-19T03:51:57.713Z,71.25
2022-08-19T03:52:49.669Z,71.30
2022-08-19T03:53:36.944Z,71.32
2022-08-19T03:54:25.308Z,71.17
2022-08-19T03:55:12.520Z,71.42
2022-08-19T03:56:01.163Z,71.77
2022-08-19T03:56:49.427Z,71.58
2022-08-19T03:57:36.188Z,71.61
2022-08-19T03:58:23.609Z,71.61
2022-08-19T03:59:13.017Z,71.61
2022-08-19T04:00:13.805Z,71.68
2022-08-19T04:01:00.853Z,71.63
2022-08-19T04:01:47.927Z,71.29
2022-08-19T04:02:34.673Z,71.46
2022-08-19T04:03:21.462Z,71.69
2022-08-19T04:04:08.224Z,71.75
2022-08-19T04:04:56.586Z,71.51
2022-08-19T04:05:43.332Z,71.33
2022-08-19T04:06:33.225Z,71.42
2022-08-19T04:07:22.487Z,71.48
2022-08-19T04:08:13.664Z,71.17
2022-08-19T04:09:02.450Z,70.74
2022-08-19T04:09:50.032Z,70.39
2022-08-19T04:10:37.924Z,70.24
2022-08-19T04:11:42.760Z,70.16
2022-08-19T04:12:30.085Z,70.26
2022-08-19T04:13:18.405Z,70.46
2022-08-19T04:14:05.508Z,70.49
2022-08-19T04:14:52.270Z,70.60
2022-08-19T04:15:43.737Z,70.31
2022-08-19T04:16:34.945Z,70.02
2022-08-19T04:17:23.528Z,69.89
2022-08-19T04:18:11.442Z,69.77
2022-08-19T04:19:01.482Z,69.64
2022-08-19T04:19:48.162Z,69.48
2022-08-19T04:20:47.097Z,69.53
2022-08-19T04:21:34.280Z,69.72
2022-08-19T04:22:21.025Z,69.72
2022-08-19T04:23:07.845Z,69.52
2022-08-19T04:23:55.833Z,69.46
2022-08-19T04:24:42.638Z,69.33
2022-08-19T04:25:29.363Z,69.39
2022-08-19T04:26:21.142Z,69.22
2022-08-19T04:27:08.028Z,68.85
2022-08-19T04:27:54.767Z,68.61
2022-08-19T04:28:41.528Z,68.43
2022-08-19T04:29:28.493Z,68.42
2022-08-19T04:30:15.764Z,68.37
2022-08-19T04:31:02.571Z,68.47
2022-08-19T04:31:49.999Z,68.28
2022-08-19T04:32:36.776Z,68.11
2022-08-19T04:33:28.500Z,67.88
2022-08-19T04:34:17.303Z,67.66
2022-08-19T04:35:16.777Z,67.12
2022-08-19T04:36:06.411Z,66.74
2022-08-19T04:36:55.077Z,66.23
2022-08-19T04:37:41.973Z,65.92
2022-08-19T04:38:29.168Z,66.11
2022-08-19T04:39:18.029Z,66.44
2022-08-19T04:40:25.768Z,66.26
2022-08-19T04:41:31.213Z,66.31
2022-08-19T04:42:37.870Z,65.91
2022-08-19T04:43:24.658Z,65.71
2022-08-19T04:44:12.536Z,65.20
2022-08-19T04:44:59.737Z,65.10
2022-08-19T04:45:47.365Z,65.02
2022-08-19T04:46:39.803Z,64.62
2022-08-19T04:47:48.105Z,64.33
2022-08-19T04:48:35.324Z,64.20
2022-08-19T04:49:23.572Z,63.79
2022-08-19T04:50:12.965Z,63.68
2022-08-19T04:51:00.121Z,63.51
2022-08-19T04:51:48.829Z,63.13
2022-08-19T04:52:35.586Z,63.47
2022-08-19T04:53:22.687Z,63.26
2022-08-19T04:54:09.998Z,63.08
2022-08-19T04:54:56.745Z,62.89
2022-08-19T04:55:44.148Z,62.57
2022-08-19T04:56:30.966Z,61.98
2022-08-19T04:57:17.707Z,61.60
2022-08-19T04:58:04.936Z,61.74
2022-08-19T04:58:52.616Z,61.61
2022-08-19T04:59:40.405Z,61.36
2022-08-19T05:00:27.125Z,61.12
2022-08-19T05:01:25.879Z,60.97
2022-08-19T05:02:12.753Z,61.05
2022-08-19T05:02:59.501Z,61.07
2022-08-19T05:03:49.470Z,61.18
2022-08-19T05:04:39.682Z,60.87
2022-08-19T05:05:26.445Z,60.61
2022-08-19T05:06:15.312Z,60.41
2022-08-19T05:07:02.496Z,60.30
2022-08-19T05:07:49.366Z,60.26
2022-08-19T05:08:37.467Z,59.83
2022-08-19T05:09:24.296Z,60.06
2022-08-19T05:10:11.387Z,58.21
2022-08-19T05:10:58.506Z,59.06
2022-08-19T05:11:45.663Z,58.54
2022-08-19T05:12:32.546Z,59.11
2022-08-19T05:13:20.404Z,58.98
2022-08-19T05:14:08.744Z,58.46
2022-08-19T05:14:58.018Z,57.68
2022-08-19T05:15:45.819Z,54.86
2022-08-19T05:16:32.687Z,53.30
2022-08-19T05:17:28.806Z,53.11
2022-08-19T05:18:35.952Z,54.38
2022-08-19T05:19:41.468Z,53.41
2022-08-19T05:20:47.066Z,49.69
2022-08-19T05:21:53.079Z,49.98
2022-08-19T05:22:40.183Z,48.35
2022-08-19T05:23:27.319Z,49.12
2022-08-19T05:24:15.128Z,47.77
2022-08-19T05:25:13.530Z,48.05
2022-08-19T05:26:00.753Z,47.65
2022-08-19T05:26:49.365Z,48.25
2022-08-19T05:27:36.221Z,45.98
2022-08-19T05:28:23.015Z,46.28
2022-08-19T05:29:11.237Z,44.93
2022-08-19T05:29:57.966Z,44.34
2022-08-19T05:30:47.435Z,45.60
2022-08-19T05:31:36.468Z,44.28
2022-08-19T05:32:29.095Z,43.65
2022-08-19T05:33:15.941Z,42.83
2022-08-19T05:34:03.099Z,42.88
2022-08-19T05:34:54.438Z,42.02
2022-08-19T05:35:42.148Z,42.35
2022-08-19T05:36:30.454Z,41.40
2022-08-19T05:37:18.206Z,41.33
2022-08-19T05:38:05.656Z,41.95
2022-08-19T05:38:54.295Z,41.42
2022-08-19T05:39:41.596Z,41.58
2022-08-19T05:40:28.510Z,41.54
2022-08-19T05:41:16.354Z,40.97
2022-08-19T05:42:07.946Z,41.17
2022-08-19T05:42:54.868Z,41.34
2022-08-19T05:43:42.442Z,41.24
2022-08-19T05:44:32.589Z,41.04
2022-08-19T05:45:19.333Z,41.20
2022-08-19T05:46:07.757Z,41.42
2022-08-19T05:46:54.915Z,40.63
2022-08-19T05:47:42.282Z,40.33
2022-08-19T05:48:29.439Z,40.38
2022-08-19T05:49:17.066Z,40.94
2022-08-19T05:50:05.353Z,40.63
2022-08-19T05:50:52.119Z,40.17
2022-08-19T05:51:39.052Z,40.57
2022-08-19T05:52:26.431Z,40.30
2022-08-19T05:53:14.214Z,40.29
2022-08-19T05:54:02.114Z,39.98
2022-08-19T05:54:51.517Z,40.49
2022-08-19T05:55:39.724Z,39.54
2022-08-19T05:56:26.538Z,39.83
2022-08-19T05:57:14.598Z,39.73
2022-08-19T05:58:03.059Z,39.66
2022-08-19T05:58:50.128Z,39.58
2022-08-19T05:59:37.204Z,39.59
2022-08-19T06:00:26.266Z,39.16
2022-08-19T06:01:15.788Z,39.66
2022-08-19T06:02:03.452Z,39.40
2022-08-19T06:02:50.530Z,39.04
2022-08-19T06:03:38.594Z,39.42
2022-08-19T06:04:25.424Z,39.30
2022-08-19T06:05:12.247Z,38.89
2022-08-19T06:06:00.566Z,38.98
2022-08-19T06:06:48.909Z,39.11
2022-08-19T06:07:37.471Z,38.92
2022-08-19T06:08:34.220Z,38.65
2022-08-19T06:09:23.474Z,38.90
2022-08-19T06:10:12.172Z,38.93
2022-08-19T06:10:58.898Z,38.50
2022-08-19T06:11:52.936Z,38.70
2022-08-19T06:12:42.261Z,38.62
2022-08-19T06:13:29.157Z,38.44
2022-08-19T06:14:27.682Z,38.37
2022-08-19T06:15:15.881Z,38.43
2022-08-19T06:16:02.815Z,38.26
2022-08-19T06:16:50.100Z,38.56
2022-08-19T06:17:37.043Z,38.61
2022-08-19T06:18:24.374Z,38.96
2022-08-19T06:19:16.867Z,39.01
2022-08-19T06:20:09.924Z,38.86
2022-08-19T06:20:56.781Z,38.63
2022-08-19T06:21:46.351Z,38.38
2022-08-19T06:22:33.119Z,38.63
2022-08-19T06:23:21.259Z,38.91
2022-08-19T06:24:12.937Z,38.38
2022-08-19T06:24:59.709Z,38.76
2022-08-19T06:25:46.405Z,37.99
2022-08-19T06:26:35.828Z,38.35
2022-08-19T06:27:23.385Z,37.99
2022-08-19T06:28:14.902Z,38.44
2022-08-19T06:29:02.523Z,38.59
2022-08-19T06:29:49.574Z,38.06
2022-08-19T06:30:37.370Z,38.29
2022-08-19T06:31:27.998Z,38.53
2022-08-19T06:32:17.604Z,38.88
2022-08-19T06:33:04.343Z,38.48
2022-08-19T06:33:51.455Z,38.53
2022-08-19T06:34:39.472Z,38.50
2022-08-19T06:35:26.565Z,38.40
2022-08-19T06:36:25.605Z,38.22
2022-08-19T06:37:13.206Z,38.57
2022-08-19T06:38:00.462Z,38.66
2022-08-19T06:38:47.298Z,38.44
2022-08-19T06:39:37.699Z,38.78
2022-08-19T06:40:24.608Z,39.04
2022-08-19T06:41:11.286Z,39.09
2022-08-19T06:42:01.227Z,38.98
2022-08-19T06:42:54.991Z,38.33
2022-08-19T06:43:43.705Z,38.60
2022-08-19T06:44:35.445Z,38.75
2022-08-19T06:45:34.730Z,38.34
2022-08-19T06:46:23.504Z,38.69
2022-08-19T06:47:14.690Z,39.09
2022-08-19T06:48:09.966Z,38.31
2022-08-19T06:48:59.258Z,38.44
2022-08-19T06:49:46.118Z,38.44
2022-08-19T06:50:32.849Z,38.14
2022-08-19T06:51:19.974Z,38.55
2022-08-19T06:52:07.141Z,38.80
2022-08-19T06:52:55.474Z,38.62
2022-08-19T06:53:46.992Z,38.60
2022-08-19T06:54:37.631Z,37.90
2022-08-19T06:55:41.407Z,37.92
2022-08-19T06:56:32.838Z,38.42
2022-08-19T06:57:19.549Z,37.52
2022-08-19T06:58:06.375Z,37.08
2022-08-19T06:58:53.946Z,36.94
2022-08-19T06:59:40.855Z,37.13
2022-08-19T07:00:27.812Z,37.33
2022-08-19T07:01:14.609Z,37.30
2022-08-19T07:02:06.638Z,36.98
2022-08-19T07:02:59.061Z,37.04
2022-08-19T07:03:47.888Z,37.11
2022-08-19T07:04:37.016Z,36.49
2022-08-19T07:05:23.765Z,36.32
2022-08-19T07:06:32.506Z,36.72
2022-08-19T07:07:23.336Z,37.29
2022-08-19T07:08:10.473Z,37.29
2022-08-19T07:08:59.157Z,37.28
2022-08-19T07:09:52.270Z,37.13
2022-08-19T07:10:47.483Z,37.59
2022-08-19T07:11:34.739Z,38.04
2022-08-19T07:12:21.483Z,37.81
2022-08-19T07:13:09.882Z,38.28
2022-08-19T07:13:56.694Z,38.75
2022-08-19T07:14:43.877Z,38.54
2022-08-19T07:15:30.880Z,38.74
2022-08-19T07:16:21.665Z,38.98
2022-08-19T07:17:16.221Z,39.25
2022-08-19T07:18:04.487Z,39.94
2022-08-19T07:18:52.145Z,40.55
2022-08-19T07:19:39.924Z,41.07
2022-08-19T07:20:28.505Z,41.56
2022-08-19T07:21:30.087Z,41.70
2022-08-19T07:22:17.364Z,41.51
2022-08-19T07:23:07.148Z,41.65
2022-08-19T07:23:55.127Z,42.08
2022-08-19T07:24:43.003Z,42.54
2022-08-19T07:25:39.172Z,42.38
2022-08-19T07:26:31.479Z,42.16
2022-08-19T07:27:24.543Z,42.10
2022-08-19T07:28:18.037Z,41.76
2022-08-19T07:29:11.968Z,41.97
2022-08-19T07:30:00.511Z,41.87
2022-08-19T07:30:47.248Z,41.77
2022-08-19T07:31:37.630Z,41.98
2022-08-19T07:32:26.967Z,41.97
2022-08-19T07:33:13.722Z,41.91
2022-08-19T07:34:01.441Z,41.06
2022-08-19T07:34:48.300Z,40.71
2022-08-19T07:35:35.366Z,40.56
2022-08-19T07:36:26.033Z,40.48
2022-08-19T07:37:12.923Z,40.03
2022-08-19T07:38:03.566Z,39.89
2022-08-19T07:38:52.609Z,39.53
2022-08-19T07:39:40.903Z,39.92
2022-08-19T07:40:27.654Z,39.90
2022-08-19T07:41:17.811Z,39.68
2022-08-19T07:42:08.751Z,39.66
2022-08-19T07:42:55.477Z,39.77
2022-08-19T07:43:44.548Z,40.22
2022-08-19T07:44:31.543Z,40.24
2022-08-19T07:45:18.352Z,39.98
2022-08-19T07:46:05.487Z,40.18
2022-08-19T07:46:56.839Z,39.87
2022-08-19T07:47:49.137Z,40.26
2022-08-19T07:48:38.451Z,40.61
2022-08-19T07:49:25.549Z,40.62
2022-08-19T07:50:12.763Z,40.65
2022-08-19T07:51:02.992Z,40.81
2022-08-19T07:51:58.287Z,40.82
2022-08-19T07:53:01.636Z,40.73
2022-08-19T07:53:51.154Z,40.87
2022-08-19T07:54:40.273Z,40.72
2022-08-19T07:55:41.626Z,40.78
2022-08-19T07:56:30.413Z,40.84
2022-08-19T07:57:18.786Z,40.69
2022-08-19T07:58:06.129Z,41.05
2022-08-19T07:58:53.709Z,40.81
2022-08-19T07:59:41.221Z,40.63
2022-08-19T08:00:28.030Z,40.28
2022-08-19T08:01:19.608Z,40.92
2022-08-19T08:02:06.574Z,40.48
2022-08-19T08:02:55.385Z,40.13
2022-08-19T08:04:01.977Z,39.88
2022-08-19T08:05:07.237Z,40.07
2022-08-19T08:06:12.259Z,40.23
2022-08-19T08:07:17.765Z,39.92
2022-08-19T08:08:23.122Z,39.40
2022-08-19T08:10:20.970Z,39.68
2022-08-19T08:11:08.764Z,39.21
2022-08-19T08:12:01.948Z,39.70
2022-08-19T08:13:09.170Z,40.02
2022-08-19T08:14:29.348Z,39.33
2022-08-19T08:15:19.602Z,39.44
2022-08-19T08:16:10.261Z,40.25
2022-08-19T08:17:00.944Z,40.09
2022-08-19T08:17:49.198Z,39.86
2022-08-19T08:18:43.239Z,39.74
2022-08-19T08:19:30.289Z,39.55
2022-08-19T08:20:18.703Z,39.59
2022-08-19T08:21:20.563Z,39.55
2022-08-19T08:22:07.535Z,39.63
2022-08-19T08:23:13.501Z,39.23
2022-08-19T08:24:52.040Z,38.24
2022-08-19T08:25:39.396Z,38.31
2022-08-19T08:26:27.394Z,38.40
2022-08-19T08:27:17.038Z,38.83
2022-08-19T08:28:06.002Z,38.57
2022-08-19T08:28:54.528Z,38.46
2022-08-19T08:29:42.189Z,38.49
2022-08-19T08:30:32.553Z,38.70
2022-08-19T08:31:20.305Z,38.42
2022-08-19T08:32:14.758Z,38.40
2022-08-19T08:33:02.641Z,38.52
2022-08-19T08:33:49.558Z,38.07
2022-08-19T08:34:38.122Z,38.25
2022-08-19T08:35:25.714Z,38.36
2022-08-19T08:36:14.901Z,37.83
2022-08-19T08:37:01.776Z,38.30
2022-08-19T08:37:51.354Z,38.11
2022-08-19T08:38:41.030Z,38.05
2022-08-19T08:39:29.828Z,38.44
2022-08-19T08:40:49.932Z,38.59
2022-08-19T08:41:51.143Z,38.25
2022-08-19T08:42:42.123Z,38.14
2022-08-19T08:43:38.067Z,37.88
2022-08-19T08:44:33.970Z,36.66
2022-08-19T08:45:24.352Z,36.59
2022-08-19T08:46:30.982Z,36.84
2022-08-19T08:47:20.455Z,36.62
2022-08-19T08:48:24.403Z,36.89
2022-08-19T08:49:35.426Z,36.36
2022-08-19T08:50:31.571Z,36.16
2022-08-19T08:51:30.892Z,36.44
2022-08-19T08:52:26.005Z,36.57
2022-08-19T08:53:29.769Z,35.97
2022-08-19T08:54:21.761Z,36.46
2022-08-19T08:55:11.629Z,36.26
2022-08-19T08:55:59.342Z,36.37
2022-08-19T08:56:47.182Z,35.77
2022-08-19T08:58:00.406Z,35.85
2022-08-19T08:58:54.770Z,36.48
2022-08-19T08:59:43.227Z,36.42
2022-08-19T09:00:40.059Z,36.66
2022-08-19T09:01:30.262Z,36.17
2022-08-19T09:02:18.640Z,35.90
2022-08-19T09:03:17.925Z,35.87
2022-08-19T09:04:07.232Z,35.64
2022-08-19T09:04:55.687Z,35.78
2022-08-19T09:06:15.862Z,35.81
2022-08-19T09:07:35.954Z,34.66
2022-08-19T09:08:37.736Z,34.71
2022-08-19T09:09:46.889Z,34.21
2022-08-19T09:10:44.337Z,34.19
2022-08-19T09:11:49.791Z,33.53
2022-08-19T09:13:09.269Z,33.75
2022-08-19T09:14:50.243Z,34.35
2022-08-19T09:15:45.579Z,33.38
2022-08-19T09:16:35.446Z,33.45
2022-08-19T09:17:32.221Z,33.47
2022-08-19T09:18:19.660Z,33.01
2022-08-19T09:19:08.516Z,33.61
2022-08-19T09:20:10.054Z,33.96
2022-08-19T09:20:57.973Z,33.81
2022-08-19T09:21:44.989Z,34.28
2022-08-19T09:22:32.320Z,34.16
2022-08-19T09:23:26.637Z,34.35
2022-08-19T09:24:13.963Z,34.52
2022-08-19T09:25:01.502Z,34.32
2022-08-19T09:25:48.450Z,34.07
2022-08-19T09:26:47.651Z,33.78
2022-08-19T09:27:43.000Z,33.34
2022-08-19T09:28:30.491Z,32.93
2022-08-19T09:29:19.555Z,33.41
2022-08-19T09:30:12.837Z,33.23
2022-08-19T09:30:59.506Z,33.40
2022-08-19T09:31:46.448Z,33.25
2022-08-19T09:32:34.521Z,33.41
2022-08-19T09:33:21.389Z,33.15
2022-08-19T09:34:21.205Z,33.22
2022-08-19T09:35:09.167Z,33.38
2022-08-19T09:36:08.825Z,33.14
2022-08-19T09:36:56.690Z,32.90
2022-08-19T09:37:44.566Z,32.49
2022-08-19T09:38:31.713Z,32.90
2022-08-19T09:39:18.519Z,33.02
2022-08-19T09:40:06.334Z,33.19
2022-08-19T09:40:53.310Z,33.50
2022-08-19T09:41:40.245Z,32.95
2022-08-19T09:42:35.469Z,33.86
2022-08-19T09:43:31.112Z,33.99
2022-08-19T09:44:30.726Z,33.89
2022-08-19T09:45:22.087Z,33.17
2022-08-19T09:46:10.490Z,33.17
2022-08-19T09:46:57.392Z,32.98
2022-08-19T09:47:47.323Z,32.94
2022-08-19T09:48:34.864Z,32.70
2022-08-19T09:49:25.366Z,33.23
2022-08-19T09:50:16.407Z,32.55
2022-08-19T09:51:12.147Z,32.40
2022-08-19T09:51:59.061Z,32.53
2022-08-19T09:52:55.264Z,32.97
2022-08-19T09:53:46.333Z,32.87
2022-08-19T09:54:44.150Z,33.17
2022-08-19T09:55:34.026Z,33.04
2022-08-19T09:56:22.274Z,32.39
2022-08-19T09:57:16.120Z,31.98
2022-08-19T09:58:03.689Z,32.10
2022-08-19T09:58:51.082Z,32.41
2022-08-19T09:59:40.440Z,31.75
2022-08-19T10:00:32.928Z,32.08
2022-08-19T10:01:24.087Z,32.88
2022-08-19T10:02:11.932Z,32.71
2022-08-19T10:02:59.704Z,32.72
2022-08-19T10:03:51.926Z,32.54
2022-08-19T10:04:57.526Z,31.89
2022-08-19T10:05:50.591Z,32.12
2022-08-19T10:06:45.673Z,32.39
2022-08-19T10:07:36.503Z,32.66
2022-08-19T10:08:29.709Z,32.30
2022-08-19T10:09:18.361Z,32.33
2022-08-19T10:10:21.102Z,31.82
2022-08-19T10:11:28.710Z,31.63
2022-08-19T10:12:15.264Z,32.16
2022-08-19T10:13:07.855Z,32.29
2022-08-19T10:13:54.902Z,32.62
2022-08-19T10:14:41.798Z,32.63
2022-08-19T10:15:29.533Z,32.85
2022-08-19T10:16:22.603Z,33.31
2022-08-19T10:17:20.000Z,33.03
2022-08-19T10:18:09.015Z,32.30
2022-08-19T10:18:58.717Z,32.04
2022-08-19T10:19:55.126Z,32.77
2022-08-19T10:20:43.454Z,32.60
2022-08-19T10:21:32.462Z,32.25
2022-08-19T10:22:19.873Z,31.76
2022-08-19T10:23:06.838Z,31.68
2022-08-19T10:23:58.798Z,31.93
2022-08-19T10:24:50.653Z,31.86
2022-08-19T10:25:38.694Z,32.05
2022-08-19T10:26:38.142Z,32.02
2022-08-19T10:27:26.249Z,32.48
2022-08-19T10:28:13.470Z,32.04
2022-08-19T10:29:01.235Z,32.47
2022-08-19T10:29:49.289Z,32.60
2022-08-19T10:30:40.535Z,32.22
2022-08-19T10:32:02.655Z,32.46
2022-08-19T10:32:37.400Z,32.24
2022-08-19T10:33:38.732Z,32.79
2022-08-19T10:34:33.016Z,32.85
2022-08-19T10:35:21.891Z,33.04
2022-08-19T10:36:18.904Z,33.25
2022-08-19T10:37:08.445Z,33.58
2022-08-19T10:38:02.682Z,33.57
2022-08-19T10:38:56.633Z,33.79
2022-08-19T10:39:44.096Z,34.22
2022-08-19T10:40:31.175Z,34.33
2022-08-19T10:41:23.506Z,34.89
2022-08-19T10:42:11.852Z,34.84
2022-08-19T10:42:59.165Z,34.57
2022-08-19T10:43:46.401Z,34.97
2022-08-19T10:44:34.194Z,34.20
2022-08-19T10:45:28.304Z,34.68
2022-08-19T10:46:16.920Z,34.35
2022-08-19T10:47:05.209Z,34.21
2022-08-19T10:48:04.903Z,34.21
2022-08-19T10:48:52.344Z,34.51
2022-08-19T10:49:59.090Z,34.74
2022-08-19T10:51:04.512Z,34.85
2022-08-19T10:52:19.049Z,34.91